createdAt,value
2018-05-23T00:02:15.519Z,96478.66
2018-05-23T00:04:46.131Z,96483.66
2018-05-23T00:07:16.774Z,96489.79
2018-05-23T00:09:47.387Z,96495.20
2018-05-23T00:12:18.819Z,96492.03
2018-05-23T00:14:50.206Z,96495.20
2018-05-23T00:17:20.834Z,96490.30
2018-05-23T00:19:51.458Z,96494.28
2018-05-23T00:22:22.859Z,96492.03
2018-05-23T00:24:53.469Z,96488.97
2018-05-23T00:27:23.958Z,96496.02
2018-05-23T00:29:55.334Z,96496.02
2018-05-23T00:32:25.975Z,96500.17
2018-05-23T00:34:56.586Z,96503.24
2018-05-23T00:37:27.063Z,96502.36
2018-05-23T00:39:57.538Z,96501.03
2018-05-23T00:42:28.940Z,96492.95
2018-05-23T00:44:59.551Z,96489.95
2018-05-23T00:47:30.388Z,96488.22
2018-05-23T00:50:00.994Z,96491.28
2018-05-23T00:52:31.099Z,96493.05
2018-05-23T01:08:41.656Z,96477.18
2018-05-23T01:11:12.067Z,96486.07
2018-05-23T01:13:43.018Z,96483.52
2018-05-23T01:16:15.141Z,96477.69
2018-05-23T01:18:45.792Z,96468.49
2018-05-23T01:21:16.412Z,96475.95
2018-05-23T01:23:46.842Z,96482.19
2018-05-23T01:26:17.442Z,96483.01
2018-05-23T01:28:48.846Z,96480.86
2018-05-23T01:31:19.455Z,96484.44
2018-05-23T01:33:50.090Z,96489.84
2018-05-23T01:36:20.699Z,96484.30
2018-05-23T01:38:52.100Z,96480.65
2018-05-23T01:41:22.719Z,96481.06
2018-05-23T01:43:53.343Z,96481.88
2018-05-23T01:46:23.951Z,96478.30
2018-05-23T01:49:11.530Z,96473.91
2018-05-23T01:51:42.145Z,96475.23
2018-05-23T01:54:12.783Z,96477.99
2018-05-23T01:56:43.387Z,96477.07
2018-05-23T01:59:14.546Z,96478.81
2018-05-23T02:01:45.894Z,96478.91
2018-05-23T02:04:16.346Z,96482.28
2018-05-23T02:06:46.962Z,96472.27
2018-05-23T02:09:17.591Z,96476.16
2018-05-23T02:11:48.198Z,96479.22
2018-05-23T02:14:19.594Z,96484.53
2018-05-23T02:16:50.202Z,96488.93
2018-05-23T02:19:20.839Z,96487.19
2018-05-23T02:21:51.450Z,96492.91
2018-05-23T02:24:22.854Z,96485.96
2018-05-23T02:26:53.454Z,96488.69
2018-05-23T02:29:24.096Z,96492.67
2018-05-23T02:31:54.696Z,96489.03
2018-05-23T02:34:26.104Z,96494.00
2018-05-23T02:36:56.715Z,96490.45
2018-05-23T02:39:27.154Z,96489.54
2018-05-23T02:41:57.771Z,96490.02
2018-05-23T02:44:28.420Z,96492.20
2018-05-23T02:46:59.057Z,96486.87
2018-05-23T02:49:29.881Z,96483.81
2018-05-23T02:52:00.697Z,96483.81
2018-05-23T02:54:32.095Z,96484.80
2018-05-23T02:57:02.705Z,96487.05
2018-05-23T02:59:32.818Z,96493.19
2018-05-23T03:02:03.501Z,96485.63
2018-05-23T03:04:34.143Z,96490.52
2018-05-23T03:07:04.509Z,96497.17
2018-05-23T03:09:35.140Z,96491.86
2018-05-23T03:12:06.516Z,96488.79
2018-05-23T03:14:37.151Z,96487.80
2018-05-23T03:17:07.762Z,96486.54
2018-05-23T03:19:38.404Z,96488.28
2018-05-23T03:22:08.823Z,96489.70
2018-05-23T03:24:39.258Z,96493.59
2018-05-23T03:27:09.683Z,96490.62
2018-05-23T03:29:40.319Z,96486.54
2018-05-23T03:32:10.402Z,96482.66
2018-05-23T03:34:40.836Z,96480.81
2018-05-23T03:37:12.215Z,96477.85
2018-05-23T03:39:43.087Z,96469.88
2018-05-23T03:42:13.498Z,96465.80
2018-05-23T03:44:44.139Z,96454.86
2018-05-23T03:47:14.747Z,96463.23
2018-05-23T03:49:45.382Z,96459.25
2018-05-23T03:52:15.990Z,96464.98
2018-05-23T03:54:47.395Z,96457.92
2018-05-23T03:57:18.005Z,96460.17
2018-05-23T04:00:05.765Z,96476.93
2018-05-23T04:02:54.279Z,96492.47
2018-05-23T04:05:42.806Z,96500.02
2018-05-23T04:08:13.416Z,96496.95
2018-05-23T04:10:43.834Z,96491.64
2018-05-23T04:13:14.448Z,96491.13
2018-05-23T04:15:45.310Z,96494.71
2018-05-23T04:18:15.726Z,96507.08
2018-05-23T04:20:46.368Z,96513.41
2018-05-23T04:23:16.986Z,96511.16
2018-05-23T04:25:47.619Z,96516.06
2018-05-23T04:28:18.234Z,96517.39
2018-05-23T04:30:48.679Z,96524.61
2018-05-23T04:33:19.514Z,96534.76
2018-05-23T04:35:49.607Z,96545.80
2018-05-23T04:38:20.262Z,96553.03
2018-05-23T04:40:50.959Z,96553.30
2018-05-23T04:43:21.610Z,96553.77
2018-05-23T04:45:52.274Z,96557.55
2018-05-23T04:48:22.919Z,96566.13
2018-05-23T04:50:53.649Z,96572.52
2018-05-23T04:53:24.355Z,96573.95
2018-05-23T04:55:55.867Z,96575.79
2018-05-23T04:58:26.555Z,96581.20
2018-05-23T05:00:58.048Z,96579.88
2018-05-23T05:03:29.482Z,96587.14
2018-05-23T05:06:00.176Z,96587.74
2018-05-23T05:08:30.598Z,96586.92
2018-05-23T05:11:01.270Z,96593.22
2018-05-23T05:13:32.739Z,96594.24
2018-05-23T05:16:03.479Z,96598.33
2018-05-23T05:18:34.186Z,96597.50
2018-05-23T05:21:05.691Z,96603.95
2018-05-23T05:23:36.399Z,96605.69
2018-05-23T05:26:07.055Z,96604.36
2018-05-23T05:28:37.127Z,96613.25
2018-05-23T05:31:08.322Z,96618.05
2018-05-23T05:33:38.394Z,96618.47
2018-05-23T05:36:08.823Z,96617.14
2018-05-23T05:38:38.890Z,96621.53
2018-05-23T05:41:09.614Z,96618.76
2018-05-23T05:43:40.047Z,96619.89
2018-05-23T05:46:10.138Z,96618.35
2018-05-23T05:48:40.539Z,96625.30
2018-05-23T05:51:11.275Z,96630.88
2018-05-23T05:53:42.000Z,96639.45
2018-05-23T05:56:13.629Z,96644.16
2018-05-23T05:58:44.324Z,96644.51
2018-05-23T06:01:15.238Z,96648.20
2018-05-23T06:03:45.916Z,96654.74
2018-05-23T06:06:16.651Z,96656.92
2018-05-23T06:08:47.350Z,96662.14
2018-05-23T06:11:17.810Z,96663.78
2018-05-23T06:13:48.454Z,96673.80
2018-05-23T06:16:19.187Z,96675.95
2018-05-23T06:18:49.811Z,96678.61
2018-05-23T06:21:20.489Z,96678.95
2018-05-23T06:23:51.195Z,96677.63
2018-05-23T06:26:21.923Z,96681.00
2018-05-23T06:28:52.620Z,96683.56
2018-05-23T06:31:23.339Z,96692.29
2018-05-23T06:33:54.731Z,96691.38
2018-05-23T06:36:25.394Z,96695.67
2018-05-23T06:38:56.027Z,96696.59
2018-05-23T06:41:27.010Z,96694.34
2018-05-23T06:43:57.087Z,96697.00
2018-05-23T06:46:27.710Z,96701.30
2018-05-23T06:48:57.791Z,96702.72
2018-05-23T06:51:28.194Z,96697.72
2018-05-23T06:53:58.258Z,96700.79
2018-05-23T06:56:28.715Z,96704.77
2018-05-23T06:58:58.787Z,96704.88
2018-05-23T07:01:29.518Z,96702.94
2018-05-23T07:03:59.590Z,96704.68
2018-05-23T07:06:30.039Z,96712.17
2018-05-23T07:09:00.105Z,96716.57
2018-05-23T07:11:31.294Z,96717.90
2018-05-23T07:14:01.358Z,96724.95
2018-05-23T07:16:32.954Z,96718.72
2018-05-23T07:19:03.791Z,96724.34
2018-05-23T07:21:34.210Z,96725.27
2018-05-23T07:24:05.122Z,96728.44
2018-05-23T07:26:35.682Z,96736.30
2018-05-23T07:29:06.514Z,96735.80
2018-05-23T07:31:37.452Z,96736.21
2018-05-23T07:34:07.678Z,96737.95
2018-05-23T07:36:39.163Z,96740.52
2018-05-23T07:39:09.239Z,96740.03
2018-05-23T07:41:40.431Z,96747.09
2018-05-23T07:44:10.489Z,96738.92
2018-05-23T07:46:41.691Z,96744.23
2018-05-23T07:49:11.754Z,96745.97
2018-05-23T07:51:42.949Z,96749.86
2018-05-23T07:54:13.783Z,96754.20
2018-05-23T07:56:44.292Z,96756.75
2018-05-23T07:59:14.463Z,96759.73
2018-05-23T08:01:44.547Z,96760.86
2018-05-23T08:04:15.375Z,96758.55
2018-05-23T08:06:46.559Z,96761.52
2018-05-23T08:09:16.622Z,96772.47
2018-05-23T08:11:47.816Z,96775.84
2018-05-23T08:14:18.848Z,96772.30
2018-05-23T08:16:49.263Z,96781.00
2018-05-23T08:19:19.685Z,96771.28
2018-05-23T08:21:50.559Z,96773.75
2018-05-23T08:24:20.736Z,96773.34
2018-05-23T08:26:52.352Z,96780.30
2018-05-23T08:29:22.775Z,96778.91
2018-05-23T08:31:52.858Z,96794.41
2018-05-23T08:34:24.227Z,96788.11
2018-05-23T08:36:54.803Z,96788.52
2018-05-23T08:39:25.369Z,96784.53
2018-05-23T08:41:56.146Z,96779.44
2018-05-23T08:44:26.585Z,96781.27
2018-05-23T08:46:57.182Z,96787.31
2018-05-23T08:49:27.578Z,96785.56
2018-05-23T08:51:58.183Z,96786.83
2018-05-23T08:54:28.247Z,96783.16
2018-05-23T08:56:58.830Z,96788.00
2018-05-23T08:59:29.447Z,96795.78
2018-05-23T09:02:00.067Z,96791.80
2018-05-23T09:04:30.651Z,96798.78
2018-05-23T09:07:01.458Z,96795.78
2018-05-23T09:09:32.033Z,96800.94
2018-05-23T09:12:02.638Z,96799.20
2018-05-23T09:14:33.248Z,96793.78
2018-05-23T09:17:03.862Z,96800.73
2018-05-23T09:19:35.194Z,96803.81
2018-05-23T09:22:05.631Z,96810.36
2018-05-23T09:24:36.983Z,96804.47
2018-05-23T09:27:07.841Z,96807.85
2018-05-23T09:29:38.235Z,96811.02
2018-05-23T09:32:08.347Z,96813.67
2018-05-23T09:34:39.238Z,96813.58
2018-05-23T09:37:09.879Z,96807.95
2018-05-23T09:39:41.208Z,96814.50
2018-05-23T09:42:11.894Z,96815.01
2018-05-23T09:44:44.005Z,96813.67
2018-05-23T09:47:14.644Z,96816.33
2018-05-23T09:49:45.026Z,96815.01
2018-05-23T09:52:16.430Z,96822.88
2018-05-23T09:54:47.047Z,96823.90
2018-05-23T09:57:17.678Z,96821.97
2018-05-23T09:59:48.281Z,96823.90
2018-05-23T10:02:19.686Z,96819.41
2018-05-23T10:04:50.293Z,96823.80
2018-05-23T10:07:21.871Z,96821.24
2018-05-23T10:09:52.478Z,96818.99
2018-05-23T10:12:23.655Z,96818.99
2018-05-23T10:14:54.275Z,96811.62
2018-05-23T10:17:24.855Z,96816.09
2018-05-23T10:19:55.458Z,96813.94
2018-05-23T10:22:26.095Z,96816.59
2018-05-23T10:24:56.702Z,96813.53
2018-05-23T10:27:27.348Z,96816.59
2018-05-23T10:29:57.959Z,96821.50
2018-05-23T10:32:28.583Z,96813.63
2018-05-23T10:34:59.203Z,96807.89
2018-05-23T10:37:29.408Z,96808.81
2018-05-23T10:40:00.014Z,96801.25
2018-05-23T10:42:30.647Z,96801.56
2018-05-23T10:45:01.263Z,96808.30
2018-05-23T10:47:31.902Z,96798.90
2018-05-23T10:50:02.722Z,96810.30
2018-05-23T10:52:33.350Z,96810.61
2018-05-23T10:55:03.770Z,96818.90
2018-05-23T10:57:34.214Z,96810.82
2018-05-23T11:00:04.669Z,96819.11
2018-05-23T11:02:35.421Z,96808.31
2018-05-23T11:05:06.033Z,96813.94
2018-05-23T11:07:36.491Z,96807.10
2018-05-23T11:10:07.106Z,96811.44
2018-05-23T11:12:37.764Z,96815.64
2018-05-23T11:15:08.458Z,96812.81
2018-05-23T11:17:39.219Z,96812.72
2018-05-23T11:20:09.843Z,96808.13
2018-05-23T11:22:40.495Z,96806.28
2018-05-23T11:25:11.161Z,96808.99
2018-05-23T11:27:41.944Z,96804.39
2018-05-23T11:30:12.548Z,96797.80
2018-05-23T11:32:43.188Z,96796.10
2018-05-23T11:35:13.802Z,96794.89
2018-05-23T11:37:44.436Z,96796.62
2018-05-23T11:40:14.858Z,96795.02
2018-05-23T11:42:45.327Z,96788.27
2018-05-23T11:45:15.751Z,96783.87
2018-05-23T11:47:46.199Z,96779.52
2018-05-23T11:50:16.849Z,96775.39
2018-05-23T11:52:47.483Z,96772.31
2018-05-23T11:55:18.674Z,96773.38
2018-05-23T11:57:49.306Z,96769.18
2018-05-23T12:00:19.928Z,96766.05
2018-05-23T12:02:51.323Z,96760.27
2018-05-23T12:05:21.935Z,96756.72
2018-05-23T12:07:52.572Z,96753.00
2018-05-23T12:10:23.201Z,96749.27
2018-05-23T12:12:54.028Z,96744.41
2018-05-23T12:15:24.641Z,96749.08
2018-05-23T12:17:56.039Z,96744.09
2018-05-23T12:20:26.454Z,96738.58
2018-05-23T12:22:57.094Z,96738.13
2018-05-23T12:25:27.709Z,96723.86
2018-05-23T12:27:58.546Z,96722.87
2018-05-23T12:30:28.950Z,96720.09
2018-05-23T12:33:00.351Z,96720.30
2018-05-23T12:35:30.532Z,96718.46
2018-05-23T12:38:00.984Z,96716.31
2018-05-23T12:40:31.599Z,96719.52
2018-05-23T12:43:02.035Z,96719.56
2018-05-23T12:45:32.646Z,96721.47
2018-05-23T12:48:04.045Z,96720.08
2018-05-23T12:50:34.659Z,96721.92
2018-05-23T12:53:05.109Z,96722.59
2018-05-23T12:55:35.531Z,96727.50
2018-05-23T12:58:06.171Z,96721.53
2018-05-23T13:00:36.791Z,96724.09
2018-05-23T13:03:07.468Z,96731.00
2018-05-23T13:05:38.230Z,96725.88
2018-05-23T13:08:09.641Z,96723.98
2018-05-23T13:10:40.252Z,96722.30
2018-05-23T13:13:10.882Z,96721.52
2018-05-23T13:15:41.306Z,96721.99
2018-05-23T13:18:11.952Z,96719.54
2018-05-23T13:20:42.375Z,96717.53
2018-05-23T13:23:12.831Z,96717.84
2018-05-23T13:25:43.447Z,96713.02
2018-05-23T13:28:14.091Z,96709.34
2018-05-23T13:30:44.698Z,96703.64
2018-05-23T13:33:15.339Z,96701.30
2018-05-23T13:35:45.946Z,96695.45
2018-05-23T13:38:16.591Z,96692.93
2018-05-23T13:40:47.199Z,96699.83
2018-05-23T13:43:17.659Z,96698.09
2018-05-23T13:45:48.068Z,96696.98
2018-05-23T13:48:18.703Z,96694.91
2018-05-23T13:50:49.326Z,96704.02
2018-05-23T13:53:19.431Z,96690.63
2018-05-23T13:55:49.515Z,96687.73
2018-05-23T13:58:19.950Z,96684.86
2018-05-23T14:00:50.563Z,96675.10
2018-05-23T14:03:21.202Z,96680.63
2018-05-23T14:05:51.831Z,96680.08
2018-05-23T14:08:22.470Z,96675.98
2018-05-23T14:10:52.898Z,96673.88
2018-05-23T14:13:23.350Z,96666.09
2018-05-23T14:15:53.755Z,96662.27
2018-05-23T14:18:24.195Z,96664.11
2018-05-23T14:20:54.798Z,96670.29
2018-05-23T14:23:25.436Z,96670.09
2018-05-23T14:25:56.047Z,96661.28
2018-05-23T14:28:27.456Z,96658.01
2018-05-23T14:30:58.267Z,96659.85
2018-05-23T14:33:28.362Z,96659.69
2018-05-23T14:35:58.934Z,96661.02
2018-05-23T14:38:29.577Z,96655.28
2018-05-23T14:41:00.007Z,96656.92
2018-05-23T14:43:30.749Z,96659.48
2018-05-23T14:46:01.459Z,96653.13
2018-05-23T14:48:32.826Z,96653.55
2018-05-23T14:51:05.596Z,96660.40
2018-05-23T14:53:36.314Z,96657.70
2018-05-23T14:56:06.609Z,96657.77
2018-05-23T14:58:36.746Z,96657.63
2018-05-23T15:01:06.742Z,96652.20
2018-05-23T15:03:36.842Z,96654.21
2018-05-23T15:06:07.523Z,96646.53
2018-05-23T15:08:37.673Z,96646.70
2018-05-23T15:11:08.701Z,96650.89
2018-05-23T15:13:39.567Z,96649.77
2018-05-23T15:16:09.637Z,96646.25
2018-05-23T15:18:40.244Z,96652.02
2018-05-23T15:21:10.844Z,96651.52
2018-05-23T15:23:41.470Z,96656.25
2018-05-23T15:26:12.018Z,96646.94
2018-05-23T15:28:42.644Z,96650.62
2018-05-23T15:31:13.263Z,96651.44
2018-05-23T15:33:44.722Z,96651.52
2018-05-23T15:36:16.046Z,96643.97
2018-05-23T15:38:47.431Z,96641.89
2018-05-23T15:41:18.039Z,96647.11
2018-05-23T15:43:48.622Z,96644.14
2018-05-23T15:46:19.235Z,96648.55
2018-05-23T15:48:49.834Z,96643.12
2018-05-23T15:51:20.447Z,96645.47
2018-05-23T15:53:51.050Z,96644.66
2018-05-23T15:56:21.659Z,96645.98
2018-05-23T15:58:51.743Z,96645.98
2018-05-23T16:01:22.321Z,96649.97
2018-05-23T16:03:52.420Z,96649.25
2018-05-23T16:06:22.810Z,96650.48
2018-05-23T16:08:52.898Z,96650.48
2018-05-23T16:11:23.468Z,96642.91
2018-05-23T16:13:53.547Z,96637.08
2018-05-23T16:16:23.613Z,96639.43
2018-05-23T16:18:54.790Z,96638.61
2018-05-23T16:21:25.619Z,96643.59
2018-05-23T16:23:56.471Z,96641.19
2018-05-23T16:26:26.542Z,96638.23
2018-05-23T16:28:56.630Z,96642.39
2018-05-23T16:31:26.703Z,96643.42
2018-05-23T16:33:57.885Z,96644.98
2018-05-23T16:36:27.946Z,96648.91
2018-05-23T16:38:58.034Z,96651.02
2018-05-23T16:41:28.105Z,96650.83
2018-05-23T16:43:59.294Z,96652.05
2018-05-23T16:46:29.366Z,96655.42
2018-05-23T16:49:00.556Z,96656.13
2018-05-23T16:51:30.615Z,96656.64
2018-05-23T16:54:01.047Z,96658.84
2018-05-23T16:56:31.111Z,96658.14
2018-05-23T16:59:01.727Z,96662.48
2018-05-23T17:01:32.558Z,96658.03
2018-05-23T17:04:02.990Z,96657.11
2018-05-23T17:06:33.142Z,96658.19
2018-05-23T17:09:03.452Z,96652.05
2018-05-23T17:11:34.274Z,96650.33
2018-05-23T17:14:04.423Z,96650.88
2018-05-23T17:16:34.823Z,96650.72
2018-05-23T17:19:04.906Z,96649.48
2018-05-23T17:21:35.310Z,96653.13
2018-05-23T17:24:05.402Z,96646.73
2018-05-23T17:26:36.616Z,96654.09
2018-05-23T17:29:06.740Z,96660.61
2018-05-23T17:31:37.147Z,96659.47
2018-05-23T17:34:07.246Z,96663.61
2018-05-23T17:36:37.966Z,96665.40
2018-05-23T17:39:08.427Z,96667.06
2018-05-23T17:41:38.498Z,96662.47
2018-05-23T17:44:10.766Z,96664.52
2018-05-23T17:46:41.696Z,96672.40
2018-05-23T17:49:12.898Z,96666.50
2018-05-23T17:51:42.962Z,96669.57
2018-05-23T17:54:14.187Z,96664.05
2018-05-23T17:56:44.252Z,96661.30
2018-05-23T17:59:14.710Z,96658.98
2018-05-23T18:01:45.063Z,96660.31
2018-05-23T18:04:15.486Z,96660.62
2018-05-23T18:06:45.558Z,96659.60
2018-05-23T18:09:15.992Z,96659.91
2018-05-23T18:11:46.830Z,96665.23
2018-05-23T18:14:17.250Z,96661.23
2018-05-23T18:16:47.386Z,96665.64
2018-05-23T18:19:18.136Z,96679.45
2018-05-23T18:21:48.203Z,96681.80
2018-05-23T18:24:19.087Z,96686.39
2018-05-23T18:26:49.492Z,96687.38
2018-05-23T18:29:19.671Z,96688.81
2018-05-23T18:31:50.967Z,96689.31
2018-05-23T18:34:21.055Z,96697.40
2018-05-23T18:36:51.117Z,96705.16
2018-05-23T18:39:21.971Z,96709.73
2018-05-23T18:41:52.381Z,96711.56
2018-05-23T18:44:23.240Z,96710.84
2018-05-23T18:46:53.404Z,96712.68
2018-05-23T18:49:23.502Z,96714.02
2018-05-23T18:51:53.771Z,96713.67
2018-05-23T18:54:24.223Z,96722.05
2018-05-23T18:56:54.486Z,96720.41
2018-05-23T18:59:24.570Z,96738.30
2018-05-23T19:01:54.971Z,96744.55
2018-05-23T19:04:25.071Z,96745.97
2018-05-23T19:06:55.326Z,96743.89
2018-05-23T19:09:25.427Z,96740.41
2018-05-23T19:11:55.499Z,96740.41
2018-05-23T19:14:25.624Z,96734.27
2018-05-23T19:16:56.194Z,96745.41
2018-05-23T19:19:26.427Z,96745.52
2018-05-23T19:21:56.899Z,96749.59
2018-05-23T19:24:26.991Z,96751.75
2018-05-23T19:26:57.399Z,96760.30
2018-05-23T19:29:27.491Z,96756.31
2018-05-23T19:31:57.894Z,96757.64
2018-05-23T19:34:27.990Z,96752.83
2018-05-23T19:36:59.459Z,96759.06
2018-05-23T19:39:30.308Z,96755.18
2018-05-23T19:42:00.706Z,96756.98
2018-05-23T19:44:30.802Z,96764.95
2018-05-23T19:47:01.206Z,96769.05
2018-05-23T19:49:31.293Z,96764.14
2018-05-23T19:52:01.377Z,96758.92
2018-05-23T19:54:32.573Z,96753.16
2018-05-23T19:57:03.408Z,96751.42
2018-05-23T19:59:33.512Z,96759.91
2018-05-23T20:02:03.974Z,96753.67
2018-05-23T20:04:34.215Z,96753.77
2018-05-23T20:07:04.303Z,96748.34
2018-05-23T20:09:34.726Z,96755.00
2018-05-23T20:12:05.559Z,96748.45
2018-05-23T20:14:35.642Z,96752.53
2018-05-23T20:17:05.713Z,96749.56
2018-05-23T20:19:36.133Z,96754.78
2018-05-23T20:22:06.979Z,96757.53
2018-05-23T20:24:37.711Z,96754.78
2018-05-23T20:27:08.539Z,96752.73
2018-05-23T20:29:38.974Z,96745.16
2018-05-23T20:32:09.817Z,96747.83
2018-05-23T20:34:40.238Z,96745.23
2018-05-23T20:37:11.071Z,96744.41
2018-05-23T20:39:42.551Z,96751.88
2018-05-23T20:42:13.379Z,96743.49
2018-05-23T20:44:43.494Z,96737.77
2018-05-23T20:47:13.919Z,96740.02
2018-05-23T20:49:44.037Z,96738.69
2018-05-23T20:52:14.439Z,96739.19
2018-05-23T20:54:44.531Z,96735.61
2018-05-23T20:57:14.931Z,96729.38
2018-05-23T20:59:45.024Z,96729.48
2018-05-23T21:02:15.431Z,96733.47
2018-05-23T21:04:45.284Z,96737.96
2018-05-23T21:07:15.368Z,96743.28
2018-05-23T21:09:46.083Z,96745.94
2018-05-23T21:12:16.151Z,96741.13
2018-05-23T21:14:46.578Z,96745.02
2018-05-23T21:17:17.411Z,96745.52
2018-05-23T21:19:47.838Z,96748.59
2018-05-23T21:22:17.938Z,96758.00
2018-05-23T21:24:48.662Z,96763.72
2018-05-23T21:27:18.726Z,96767.70
2018-05-23T21:29:49.172Z,96776.92
2018-05-23T21:32:19.558Z,96767.30
2018-05-23T21:34:49.643Z,96775.27
2018-05-23T21:37:19.746Z,96772.61
2018-05-23T21:39:50.475Z,96773.12
2018-05-23T21:42:20.551Z,96771.80
2018-05-23T21:44:51.769Z,96764.33
2018-05-23T21:47:21.822Z,96762.49
2018-05-23T21:49:52.232Z,96764.73
2018-05-23T21:52:22.307Z,96756.35
2018-05-23T21:54:52.866Z,96751.04
2018-05-23T21:57:22.946Z,96745.72
2018-05-23T21:59:53.374Z,96749.27
2018-05-23T22:02:24.206Z,96751.10
2018-05-23T22:04:55.070Z,96750.19
2018-05-23T22:07:25.763Z,96747.11
2018-05-23T22:09:55.838Z,96749.36
2018-05-23T22:12:26.531Z,96746.30
2018-05-23T22:14:57.398Z,96740.06
2018-05-23T22:17:27.836Z,96738.31
2018-05-23T22:19:58.299Z,96745.89
2018-05-23T22:22:28.686Z,96736.17
2018-05-23T22:24:58.774Z,96745.06
2018-05-23T22:27:29.187Z,96739.65
2018-05-23T22:29:59.294Z,96738.83
2018-05-23T22:32:29.692Z,96739.23
2018-05-23T22:34:59.779Z,96742.81
2018-05-23T22:37:31.239Z,96741.90
2018-05-23T22:40:02.109Z,96736.27
2018-05-23T22:42:32.873Z,96735.34
2018-05-23T22:45:02.958Z,96742.41
2018-05-23T22:47:33.660Z,96744.24
2018-05-23T22:50:03.765Z,96745.57
2018-05-23T22:52:35.230Z,96745.57
2018-05-23T22:55:05.327Z,96744.14
2018-05-23T22:57:36.501Z,96736.27
2018-05-23T23:00:06.616Z,96745.16
2018-05-23T23:02:36.675Z,96742.09
2018-05-23T23:05:06.767Z,96742.09
2018-05-23T23:07:37.407Z,96738.92
2018-05-23T23:10:08.263Z,96741.17
2018-05-23T23:12:38.898Z,96738.11
2018-05-23T23:15:09.747Z,96737.19
2018-05-23T23:17:40.151Z,96734.53
2018-05-23T23:20:11.026Z,96735.03
2018-05-23T23:22:41.399Z,96732.89
2018-05-23T23:25:11.487Z,96731.97
2018-05-23T23:27:42.669Z,96723.99
2018-05-23T23:30:12.956Z,96726.66
2018-05-23T23:32:43.370Z,96729.31
2018-05-23T23:35:13.462Z,96737.80
2018-05-23T23:37:43.871Z,96736.88
2018-05-23T23:40:14.775Z,96742.66
2018-05-23T23:42:45.174Z,96741.78
2018-05-23T23:45:15.289Z,96744.44
2018-05-23T23:47:45.355Z,96747.98
2018-05-23T23:50:15.753Z,96754.22
2018-05-23T23:52:45.806Z,96754.63
2018-05-23T23:55:17.211Z,96755.95
2018-05-23T23:57:47.271Z,96755.48
